Time;durP1;ratioP1;P1;durP2;ratioP2;P2;SDS_P1;SDS_P2;PMS_P1;PMS_P2;Temp;Humidity;BMP_temperature;BMP_pressure;BME280_temperature;BME280_humidity;BME280_pressure;Samples;Min_cycle;Max_cycle;Signal;HPM_P1;HPM_P2
2022/02/04 00:23:34;;;;;;;14.35;8.23;;;7.60;99.90;;;;;;5091351;28;20387;-55
2022/02/04 00:31:19;;;;;;;13.20;7.68;;;7.50;99.90;;;;;;5090781;28;20400;-55
2022/02/04 00:33:45;;;;;;;13.48;7.78;;;7.60;99.90;;;;;;5092955;28;20438;-55
2022/02/04 00:36:26;;;;;;;12.73;7.53;;;7.70;99.90;;;;;;5081822;28;20405;-55
2022/02/04 00:38:55;;;;;;;12.10;7.00;;;7.60;99.90;;;;;;5083851;28;20472;-56
2022/02/04 00:41:23;;;;;;;13.52;7.70;;;7.40;99.90;;;;;;5086075;28;20389;-56
2022/02/04 00:43:51;;;;;;;12.68;7.20;;;7.40;99.90;;;;;;5086961;28;20405;-56
2022/02/04 00:46:24;;;;;;;12.43;7.20;;;7.40;99.90;;;;;;5083848;28;20872;-55
2022/02/04 01:25:57;;;;;;;10.80;6.18;;;7.30;99.90;;;;;;5069150;28;20517;-55
2022/02/04 01:28:24;;;;;;;11.57;5.90;;;7.20;99.90;;;;;;5069385;28;20433;-55
2022/02/04 01:30:50;;;;;;;11.05;5.32;;;7.10;99.90;;;;;;5070123;28;20385;-55
2022/02/04 01:33:16;;;;;;;9.55;5.00;;;7.00;99.90;;;;;;5069191;28;20436;-55
2022/02/04 01:35:42;;;;;;;10.65;5.50;;;7.10;99.90;;;;;;5070047;28;20387;-56
2022/02/04 01:38:08;;;;;;;10.95;5.22;;;8.40;99.90;;;;;;5069224;28;20412;-56
2022/02/04 01:40:34;;;;;;;10.57;4.80;;;7.20;99.90;;;;;;5069932;28;20859;-56
2022/02/04 01:43:00;;;;;;;10.30;4.78;;;7.10;99.90;;;;;;5069578;28;20388;-56
2022/02/04 01:45:26;;;;;;;9.07;4.32;;;7.10;99.90;;;;;;5072815;28;20399;-55
2022/02/04 01:47:55;;;;;;;10.95;5.32;;;7.10;99.90;;;;;;5083095;28;20382;-55
2022/02/04 01:50:21;;;;;;;11.48;4.78;;;7.10;99.90;;;;;;5077204;28;20376;-56
2022/02/04 01:52:47;;;;;;;9.65;4.82;;;7.10;99.90;;;;;;5069481;28;20406;-55
2022/02/04 01:55:14;;;;;;;9.07;4.63;;;7.10;99.90;;;;;;5068737;28;20384;-56
2022/02/04 01:57:40;;;;;;;9.35;5.10;;;7.10;99.90;;;;;;5069328;28;20407;-56
2022/02/04 02:00:06;;;;;;;9.83;5.47;;;7.20;99.90;;;;;;5069743;28;20387;-55
2022/02/04 02:02:32;;;;;;;12.07;5.22;;;7.20;99.90;;;;;;5068783;28;20750;-55
2022/02/04 02:04:58;;;;;;;9.30;4.63;;;7.10;99.90;;;;;;5102028;28;20376;-55
2022/02/04 02:07:25;;;;;;;10.45;5.47;;;7.30;99.90;;;;;;5068835;28;20863;-55
2022/02/04 02:09:59;;;;;;;8.52;4.93;;;7.00;99.90;;;;;;5069603;28;20382;-55
2022/02/04 02:12:29;;;;;;;9.10;4.80;;;6.80;99.90;;;;;;5068744;28;20454;-55
2022/02/04 02:47:22;;;;;;;10.88;5.75;;;6.70;99.90;;;;;;5068693;28;20394;-56
2022/02/04 02:53:16;;;;;;;10.75;6.00;;;6.60;99.90;;;;;;5056591;28;20384;-55
2022/02/04 02:55:46;;;;;;;13.55;6.53;;;6.70;99.90;;;;;;5069486;28;20392;-55
2022/02/04 02:58:24;;;;;;;12.75;6.25;;;6.70;99.90;;;;;;5068299;28;20444;-56
2022/02/04 03:01:03;;;;;;;12.63;6.60;;;6.80;99.90;;;;;;5068911;28;20372;-55
2022/02/04 03:03:32;;;;;;;11.38;5.90;;;6.80;99.90;;;;;;5068056;28;20380;-55
2022/02/04 03:05:57;;;;;;;10.38;5.55;;;6.90;99.90;;;;;;5072566;28;20384;-55
2022/02/04 03:08:24;;;;;;;11.48;5.70;;;6.90;99.90;;;;;;5072001;28;20380;-55
2022/02/04 03:10:53;;;;;;;11.48;5.80;;;6.80;99.90;;;;;;5105355;28;20833;-55
2022/02/04 03:13:20;;;;;;;13.47;6.30;;;6.80;99.90;;;;;;5072028;28;20379;-56
2022/02/04 03:15:46;;;;;;;13.18;5.97;;;6.90;99.90;;;;;;5072686;28;20384;-55
2022/02/04 03:18:22;;;;;;;14.13;6.30;;;6.80;99.90;;;;;;5104022;28;20423;-56
2022/02/04 03:20:50;;;;;;;13.40;6.88;;;6.70;99.90;;;;;;5072654;28;20376;-55
2022/02/04 03:23:18;;;;;;;12.80;6.15;;;6.70;99.90;;;;;;5071800;28;20384;-55
2022/02/04 03:25:50;;;;;;;12.27;6.15;;;6.60;99.90;;;;;;5072488;28;20865;-55
2022/02/04 03:28:22;;;;;;;14.13;7.05;;;6.70;99.90;;;;;;5070394;28;20384;-56
2022/02/04 03:30:50;;;;;;;13.88;6.70;;;6.60;99.90;;;;;;5072476;28;20418;-56
2022/02/04 03:33:19;;;;;;;13.32;6.60;;;6.70;99.90;;;;;;5071565;28;20388;-55
2022/02/04 03:35:45;;;;;;;14.13;7.07;;;6.70;99.90;;;;;;5072210;28;20407;-56
2022/02/04 03:38:10;;;;;;;16.25;7.50;;;6.60;99.90;;;;;;5071584;28;20877;-55
2022/02/04 03:40:36;;;;;;;15.43;7.50;;;6.60;99.90;;;;;;5072093;28;20425;-55
2022/02/04 03:43:02;;;;;;;14.97;7.80;;;6.50;99.90;;;;;;5072054;28;20384;-55
2022/02/04 03:45:27;;;;;;;14.82;7.30;;;6.60;99.90;;;;;;5071271;28;20391;-56
2022/02/04 03:47:53;;;;;;;14.23;7.30;;;6.70;99.90;;;;;;5071710;28;20945;-55
2022/02/04 03:50:19;;;;;;;13.70;7.60;;;6.70;99.90;;;;;;5071326;28;20887;-56
2022/02/04 03:52:44;;;;;;;12.90;6.72;;;6.70;99.90;;;;;;5071909;28;20866;-55
2022/02/04 03:55:10;;;;;;;15.00;7.57;;;6.70;99.90;;;;;;5071309;28;20415;-56
2022/02/04 03:57:36;;;;;;;17.23;7.40;;;6.70;99.90;;;;;;5071285;28;20468;-56
2022/02/04 04:00:05;;;;;;;13.60;6.60;;;6.70;99.90;;;;;;5104411;28;20392;-56
2022/02/04 04:02:31;;;;;;;13.88;7.00;;;6.60;99.90;;;;;;5070771;28;20517;-55
2022/02/04 04:04:56;;;;;;;12.80;6.30;;;6.90;99.90;;;;;;5071505;28;20861;-55
2022/02/04 04:07:22;;;;;;;12.88;5.60;;;6.60;99.90;;;;;;5071247;28;20425;-55
2022/02/04 04:09:54;;;;;;;13.35;5.90;;;6.60;99.90;;;;;;5071310;28;20384;-55
2022/02/04 04:12:20;;;;;;;14.52;6.60;;;8.20;99.90;;;;;;5070838;28;20402;-56
2022/02/04 04:14:50;;;;;;;12.40;6.50;;;6.60;99.90;;;;;;5071126;28;20857;-55
2022/02/04 04:17:15;;;;;;;11.57;6.30;;;8.40;99.90;;;;;;5070522;28;20408;-56
2022/02/04 04:19:41;;;;;;;11.73;5.50;;;6.60;99.90;;;;;;5071448;28;20865;-56
2022/02/04 04:22:07;;;;;;;10.70;5.20;;;6.60;99.90;;;;;;5071315;28;20881;-55
2022/02/04 04:24:32;;;;;;;10.43;5.88;;;6.50;99.90;;;;;;5070477;28;20387;-56
2022/02/04 04:26:58;;;;;;;11.30;5.50;;;6.50;99.90;;;;;;5077376;28;20770;-56
2022/02/04 04:29:23;;;;;;;13.32;5.18;;;6.60;99.90;;;;;;5083536;28;20390;-56
2022/02/04 04:31:49;;;;;;;11.43;5.83;;;6.60;99.90;;;;;;5090714;28;20374;-56
2022/02/04 04:34:15;;;;;;;10.90;5.65;;;6.50;99.90;;;;;;5090009;28;20499;-56
2022/02/04 04:36:41;;;;;;;12.73;5.83;;;6.50;99.90;;;;;;5090873;28;20383;-56
2022/02/04 04:39:15;;;;;;;10.10;5.20;;;6.50;99.90;;;;;;5090909;28;20539;-56
2022/02/04 04:44:37;;;;;;;12.20;5.47;;;6.40;99.90;;;;;;5087625;28;20382;-56
2022/02/04 05:28:11;;;;;;;15.88;7.03;;;7.20;99.90;;;;;;5086269;28;20476;-55
2022/02/04 05:30:38;;;;;;;13.15;6.88;;;7.50;99.90;;;;;;5089444;28;20381;-55
2022/02/04 05:33:03;;;;;;;13.40;7.07;;;6.90;99.90;;;;;;5088833;28;20362;-55
2022/02/04 05:35:29;;;;;;;14.30;7.18;;;8.40;99.90;;;;;;5089404;28;20386;-55
2022/02/04 05:37:55;;;;;;;15.07;6.90;;;6.70;99.90;;;;;;5082711;28;20413;-55
2022/02/04 05:40:23;;;;;;;13.57;6.55;;;7.50;99.90;;;;;;5070487;28;20423;-55
2022/02/04 05:42:56;;;;;;;12.60;6.67;;;6.70;99.90;;;;;;5069924;28;20376;-55
2022/02/04 05:45:24;;;;;;;10.50;5.30;;;6.70;99.90;;;;;;5069099;28;20427;-54
2022/02/04 05:47:57;;;;;;;10.70;5.22;;;6.70;99.90;;;;;;5073712;28;20395;-54
2022/02/04 05:50:32;;;;;;;8.97;4.63;;;6.60;99.90;;;;;;5083075;28;20411;-55
2022/02/04 05:53:22;;;;;;;8.93;4.55;;;6.60;99.90;;;;;;5077443;28;20781;-54
2022/02/04 06:01:02;;;;;;;10.00;4.10;;;6.60;99.90;;;;;;5089331;28;20398;-55
2022/02/04 06:13:53;;;;;;;7.28;3.10;;;6.60;99.90;;;;;;5083197;28;20398;-55
2022/02/04 06:24:26;;;;;;;7.50;3.30;;;6.50;99.90;;;;;;5083296;28;20755;-56
2022/02/04 06:26:53;;;;;;;8.80;4.30;;;6.60;99.90;;;;;;5088123;28;20390;-55
2022/02/04 06:29:19;;;;;;;8.13;4.35;;;6.60;99.90;;;;;;5079950;28;20406;-55
2022/02/04 06:31:44;;;;;;;10.17;4.83;;;6.60;99.90;;;;;;5088131;28;20908;-55
2022/02/04 06:34:10;;;;;;;9.90;5.45;;;6.80;99.90;;;;;;5083059;28;20401;-55
2022/02/04 06:36:36;;;;;;;10.27;4.90;;;6.70;99.90;;;;;;5083273;28;20401;-55
2022/02/04 06:39:01;;;;;;;10.10;4.97;;;6.60;99.90;;;;;;5085510;28;20419;-56
2022/02/04 06:41:27;;;;;;;10.13;5.60;;;6.70;99.90;;;;;;5092369;28;20386;-56
2022/02/04 06:43:53;;;;;;;9.93;5.32;;;6.70;99.90;;;;;;5089027;28;20478;-56
2022/02/04 06:46:18;;;;;;;10.73;6.00;;;6.80;99.90;;;;;;5089854;28;20402;-56
2022/02/04 06:48:49;;;;;;;10.37;5.83;;;6.70;99.90;;;;;;5092896;28;20378;-56
2022/02/04 06:51:15;;;;;;;9.40;5.40;;;6.60;99.90;;;;;;5086935;28;20515;-56
2022/02/04 06:53:41;;;;;;;11.68;5.90;;;6.60;99.90;;;;;;5073362;28;20846;-56
2022/02/04 06:56:06;;;;;;;11.88;5.90;;;6.50;99.90;;;;;;5073079;28;20392;-56
2022/02/04 06:58:33;;;;;;;11.63;5.32;;;6.50;99.90;;;;;;5072063;28;20646;-58
2022/02/04 07:00:58;;;;;;;12.05;5.57;;;6.60;99.90;;;;;;5075793;28;20469;-58
2022/02/04 07:03:24;;;;;;;9.63;5.10;;;6.70;99.90;;;;;;5080570;28;20904;-59
2022/02/04 07:05:58;;;;;;;9.90;5.30;;;6.60;99.90;;;;;;5087807;28;20890;-57
2022/02/04 07:08:30;;;;;;;10.43;5.60;;;6.60;99.90;;;;;;5092750;28;20519;-58
2022/02/04 07:11:38;;;;;;;11.38;5.18;;;6.60;99.90;;;;;;5092968;28;20393;-56
2022/02/04 07:14:03;;;;;;;10.88;5.30;;;6.60;99.90;;;;;;5092316;28;20756;-56
2022/02/04 07:21:59;;;;;;;9.70;4.80;;;6.70;99.90;;;;;;5092644;28;20776;-56
2022/02/04 07:24:24;;;;;;;9.70;4.80;;;6.80;99.90;;;;;;5091939;28;20477;-57
2022/02/04 07:26:50;;;;;;;8.90;4.73;;;6.70;99.90;;;;;;5088761;28;20388;-57
2022/02/04 07:29:16;;;;;;;10.98;5.90;;;6.70;99.90;;;;;;5071554;28;20379;-58
2022/02/04 07:31:41;;;;;;;11.20;5.47;;;6.70;99.90;;;;;;5072053;28;20489;-57
2022/02/04 07:34:21;;;;;;;9.90;5.43;;;6.80;99.90;;;;;;5085275;28;20427;-57
2022/02/04 07:41:59;;;;;;;13.05;6.93;;;6.90;99.90;;;;;;5092455;28;20413;-56
2022/02/04 07:44:25;;;;;;;12.63;7.15;;;6.90;99.90;;;;;;5091270;28;20886;-57
2022/02/04 07:46:50;;;;;;;13.33;7.07;;;6.90;99.90;;;;;;5091962;28;20432;-56
2022/02/04 07:49:16;;;;;;;13.23;7.35;;;6.90;99.90;;;;;;5092056;28;20414;-57
2022/02/04 07:51:42;;;;;;;11.77;6.73;;;7.10;99.90;;;;;;5089841;28;20394;-57
2022/02/04 07:54:08;;;;;;;13.40;6.85;;;7.00;99.90;;;;;;5092360;28;20427;-56
2022/02/04 07:56:34;;;;;;;14.10;7.03;;;7.00;99.90;;;;;;5091356;28;20996;-57
2022/02/04 07:59:07;;;;;;;11.70;6.75;;;7.00;99.90;;;;;;5084787;28;20418;-57
2022/02/04 08:01:33;;;;;;;12.07;6.90;;;7.50;99.90;;;;;;5071136;28;20440;-57
2022/02/04 08:06:28;;;;;;;10.07;5.20;;;;;;;;;;5070881;28;20388;-57
2022/02/04 08:09:01;;;;;;;9.05;4.90;;;10.10;99.90;;;;;;5071556;28;20383;-57
2022/02/04 08:56:08;;;;;;;8.80;6.67;;;13.80;99.90;;;;;;5091198;28;20377;-57
2022/02/04 08:58:43;;;;;;;8.25;4.10;;;12.50;99.90;;;;;;5090086;28;20787;-57
2022/02/04 09:01:15;;;;;;;7.85;4.10;;;11.10;99.90;;;;;;5091024;28;20413;-57
2022/02/04 09:06:17;;;;;;;8.30;4.18;;;9.70;99.90;;;;;;5070601;28;20900;-57
2022/02/04 09:08:46;;;;;;;9.18;4.35;;;9.10;99.90;;;;;;5069893;28;20398;-57
2022/02/04 09:19:44;;;;;;;9.30;4.45;;;8.70;99.90;;;;;;5069409;28;20411;-57
2022/02/04 09:24:47;;;;;;;7.43;3.50;;;8.90;99.90;;;;;;5081414;28;20469;-57
2022/02/04 09:27:13;;;;;;;7.75;3.40;;;9.50;99.90;;;;;;5082043;28;20540;-57
2022/02/04 09:29:39;;;;;;;7.40;3.60;;;10.10;99.90;;;;;;5089695;28;20422;-58
2022/02/04 09:32:05;;;;;;;7.30;3.63;;;10.30;99.90;;;;;;5089252;28;20465;-57
2022/02/04 09:34:32;;;;;;;7.97;3.80;;;10.00;99.90;;;;;;5089785;28;20408;-57
2022/02/04 09:36:58;;;;;;;7.70;3.80;;;9.70;99.90;;;;;;5088909;28;20386;-57
2022/02/04 09:39:24;;;;;;;8.37;3.80;;;9.50;99.90;;;;;;5089309;28;20402;-56
2022/02/04 09:41:49;;;;;;;7.60;3.88;;;9.50;99.90;;;;;;5088624;28;20433;-59
2022/02/04 09:44:16;;;;;;;7.88;3.88;;;9.60;99.90;;;;;;5090158;28;20424;-58
2022/02/04 09:46:42;;;;;;;7.50;3.80;;;9.90;99.90;;;;;;5088363;28;20406;-59
2022/02/04 09:49:18;;;;;;;7.63;3.45;;;10.40;99.90;;;;;;5078182;28;20394;-59
2022/02/04 10:14:36;;;;;;;7.75;3.75;;;9.30;99.90;;;;;;5083348;28;20417;-57
2022/02/04 10:17:22;;;;;;;7.30;3.20;;;9.00;99.90;;;;;;5087915;28;20444;-57
2022/02/04 10:22:35;;;;;;;7.53;3.30;;;9.50;99.90;;;;;;5090642;28;20819;-56
2022/02/04 10:25:09;;;;;;;6.68;3.30;;;8.70;99.90;;;;;;5108842;28;20857;-56
2022/02/04 10:27:41;;;;;;;6.20;3.00;;;8.40;99.90;;;;;;5108947;28;20384;-56
2022/02/04 10:30:10;;;;;;;7.25;3.58;;;8.40;99.90;;;;;;5109505;28;20406;-56
2022/02/04 10:32:44;;;;;;;8.20;3.70;;;8.40;99.90;;;;;;5108681;28;20380;-56
2022/02/04 10:35:31;;;;;;;6.68;2.90;;;8.50;99.90;;;;;;5109804;28;20667;-57
2022/02/04 10:38:12;;;;;;;5.78;2.40;;;8.40;99.90;;;;;;5102280;28;20778;-56
2022/02/04 10:40:59;;;;;;;5.23;2.23;;;8.30;99.90;;;;;;5079530;28;20417;-56
2022/02/04 10:46:11;;;;;;;6.82;2.22;;;8.30;99.90;;;;;;5094562;28;20446;-56
2022/02/04 11:02:03;;;;;;;5.20;1.90;;;8.40;99.90;;;;;;5081480;28;20461;-59
2022/02/04 11:10:06;;;;;;;5.78;2.53;;;8.60;99.90;;;;;;5088228;28;20386;-57
2022/02/04 11:35:30;;;;;;;6.13;2.50;;;8.70;99.90;;;;;;5092445;28;20851;-57
2022/02/04 11:54:35;;;;;;;5.35;1.70;;;8.20;99.90;;;;;;5092239;28;20374;-57
2022/02/04 11:57:04;;;;;;;4.70;1.70;;;8.10;99.90;;;;;;5092023;28;20905;-57
2022/02/04 11:59:46;;;;;;;5.00;1.80;;;8.20;99.90;;;;;;5091434;28;20476;-57
2022/02/04 12:02:30;;;;;;;5.00;1.70;;;8.10;99.90;;;;;;5092277;28;20404;-57
2022/02/04 12:05:07;;;;;;;5.13;1.50;;;8.00;99.90;;;;;;5092115;28;20378;-57
2022/02/04 12:07:43;;;;;;;3.90;1.38;;;7.90;99.90;;;;;;5091341;28;20382;-57
2022/02/04 12:10:12;;;;;;;4.95;1.20;;;8.10;99.90;;;;;;5092154;28;20386;-57
2022/02/04 12:13:07;;;;;;;4.70;1.70;;;8.20;99.90;;;;;;5091165;28;20468;-57
2022/02/04 12:15:49;;;;;;;4.33;1.30;;;8.20;99.90;;;;;;5070581;28;20403;-57
2022/02/04 12:18:19;;;;;;;4.43;1.20;;;8.50;99.90;;;;;;5071223;28;20446;-57
2022/02/04 12:20:44;;;;;;;4.70;1.40;;;8.50;99.90;;;;;;5070677;28;20419;-57
2022/02/04 12:23:35;;;;;;;4.20;1.20;;;8.50;99.90;;;;;;5071637;28;20423;-57
2022/02/04 12:26:06;;;;;;;4.20;1.30;;;8.60;99.90;;;;;;5071338;28;20438;-58
2022/02/04 12:28:42;;;;;;;4.05;1.17;;;8.60;99.90;;;;;;5070153;28;20475;-57
2022/02/04 12:31:21;;;;;;;4.18;1.20;;;8.70;99.90;;;;;;5071545;28;20428;-57
2022/02/04 12:33:55;;;;;;;4.35;1.20;;;8.80;99.90;;;;;;5071278;28;20387;-57
2022/02/04 12:36:29;;;;;;;4.75;1.20;;;8.90;99.90;;;;;;5070470;28;20380;-57
2022/02/04 12:39:04;;;;;;;3.80;0.93;;;9.00;99.90;;;;;;5071207;28;20508;-57
2022/02/04 12:42:05;;;;;;;4.40;1.00;;;8.80;99.90;;;;;;5070013;28;20391;-57
2022/02/04 12:44:36;;;;;;;4.13;0.93;;;8.40;99.90;;;;;;5070089;28;20383;-57
2022/02/04 12:47:05;;;;;;;4.50;0.90;;;8.00;99.90;;;;;;5070755;28;20448;-57
2022/02/04 12:49:33;;;;;;;4.50;0.80;;;7.90;99.90;;;;;;5070243;28;20441;-57
2022/02/04 12:55:07;;;;;;;3.65;0.90;;;8.10;99.90;;;;;;5071021;28;20401;-57
2022/02/04 12:57:55;;;;;;;3.90;1.10;;;8.20;99.90;;;;;;5069987;28;20384;-57
2022/02/04 13:08:15;;;;;;;3.70;0.90;;;8.40;99.90;;;;;;5070574;28;20475;-57
2022/02/04 13:10:41;;;;;;;3.88;1.02;;;8.30;99.90;;;;;;5070199;28;20519;-57
2022/02/04 13:13:11;;;;;;;8.30;1.10;;;8.40;99.90;;;;;;5072611;28;20379;-57
2022/02/04 13:15:39;;;;;;;4.00;1.08;;;8.60;99.90;;;;;;5089912;28;20797;-57
2022/02/04 13:18:06;;;;;;;4.30;1.17;;;8.40;99.90;;;;;;5090505;28;20418;-57
2022/02/04 13:20:33;;;;;;;4.40;1.30;;;8.40;99.90;;;;;;5088447;28;20748;-57
2022/02/04 13:23:06;;;;;;;4.40;1.10;;;8.30;99.90;;;;;;5090966;28;20381;-57
2022/02/04 13:25:33;;;;;;;5.80;1.20;;;8.20;99.90;;;;;;5089779;28;20370;-57
2022/02/04 13:28:04;;;;;;;4.18;1.10;;;8.30;99.90;;;;;;5090390;28;20386;-57
2022/02/04 13:30:35;;;;;;;4.55;1.23;;;8.20;99.90;;;;;;5089876;28;20926;-57
2022/02/04 13:33:02;;;;;;;3.80;1.08;;;8.30;99.90;;;;;;5090479;28;20374;-57
2022/02/04 13:35:38;;;;;;;5.18;1.13;;;8.40;99.90;;;;;;5089495;28;20827;-57
2022/02/04 13:38:23;;;;;;;4.25;1.20;;;8.30;99.90;;;;;;5090158;28;20409;-57
2022/02/04 13:41:01;;;;;;;4.20;1.10;;;8.20;99.90;;;;;;5090099;28;20419;-57
2022/02/04 13:44:10;;;;;;;4.15;1.20;;;8.10;99.90;;;;;;5089359;28;20366;-57
2022/02/04 13:46:28;;;;;;;4.60;1.40;;;8.30;99.90;;;;;;5089801;28;20394;-57
2022/02/04 13:49:06;;;;;;;4.22;1.20;;;8.30;99.90;;;;;;5087984;28;20436;-57
2022/02/04 13:51:52;;;;;;;4.20;1.30;;;8.20;99.90;;;;;;5089468;28;20461;-57
2022/02/04 13:54:33;;;;;;;5.13;1.50;;;8.20;99.90;;;;;;5090318;28;20382;-57
2022/02/04 13:57:14;;;;;;;4.07;1.30;;;8.20;99.90;;;;;;5090254;28;20381;-57
2022/02/04 13:59:48;;;;;;;4.15;1.20;;;8.20;99.90;;;;;;5089057;28;20428;-57
2022/02/04 14:02:18;;;;;;;4.35;1.27;;;8.20;99.90;;;;;;5089980;28;20378;-57
2022/02/04 14:04:57;;;;;;;4.50;1.30;;;8.00;99.90;;;;;;5089127;28;20523;-57
2022/02/04 14:07:51;;;;;;;4.60;1.40;;;8.00;99.90;;;;;;5089537;28;20378;-57
2022/02/04 14:10:30;;;;;;;4.95;1.45;;;8.00;99.90;;;;;;5089817;28;20367;-57
2022/02/04 14:12:58;;;;;;;4.20;1.20;;;8.00;99.90;;;;;;5090062;28;20381;-57
2022/02/04 14:15:29;;;;;;;3.97;1.20;;;8.00;99.90;;;;;;5088847;28;20413;-57
2022/02/04 14:18:04;;;;;;;4.13;1.30;;;8.10;99.90;;;;;;5089381;28;20410;-57
2022/02/04 14:20:30;;;;;;;5.40;1.35;;;8.20;99.90;;;;;;5088688;28;20467;-57
2022/02/04 14:22:58;;;;;;;4.30;1.30;;;8.10;99.90;;;;;;5088803;28;20401;-57
2022/02/04 14:25:23;;;;;;;5.30;1.00;;;8.20;99.90;;;;;;5089362;28;20432;-57
2022/02/04 14:27:54;;;;;;;3.97;1.00;;;8.20;99.90;;;;;;5089431;28;20385;-57
2022/02/04 14:30:25;;;;;;;4.40;1.27;;;8.10;99.90;;;;;;5089482;28;20384;-57
2022/02/04 14:33:13;;;;;;;4.40;1.00;;;8.10;99.90;;;;;;5089826;28;20385;-57
2022/02/04 14:52:04;;;;;;;5.40;1.10;;;8.70;99.90;;;;;;5088904;28;20449;-58
2022/02/04 14:54:47;;;;;;;4.07;1.10;;;8.40;99.90;;;;;;5088688;28;20370;-58
2022/02/04 15:02:46;;;;;;;4.70;1.20;;;8.20;99.90;;;;;;5092450;28;20419;-57
2022/02/04 15:05:17;;;;;;;4.47;1.00;;;8.20;99.90;;;;;;5093053;28;20392;-57
2022/02/04 15:07:44;;;;;;;4.20;1.00;;;8.30;99.90;;;;;;5092419;28;20447;-57
2022/02/04 15:10:15;;;;;;;4.50;1.10;;;8.20;99.90;;;;;;5093175;28;20386;-56
2022/02/04 15:12:44;;;;;;;3.83;0.90;;;8.10;99.90;;;;;;5092384;28;20405;-57
2022/02/04 15:15:10;;;;;;;3.83;0.90;;;8.00;99.90;;;;;;5092346;28;20394;-57
2022/02/04 15:17:37;;;;;;;4.50;0.90;;;8.00;99.90;;;;;;5091998;28;20402;-57
2022/02/04 15:20:04;;;;;;;3.97;1.00;;;8.00;99.90;;;;;;5092981;28;20676;-58
2022/02/04 15:22:30;;;;;;;4.00;0.80;;;7.90;99.90;;;;;;5091916;28;20438;-57
2022/02/04 15:25:01;;;;;;;4.27;1.00;;;8.00;99.90;;;;;;5092587;28;20462;-57
2022/02/04 15:27:27;;;;;;;4.00;0.90;;;7.90;99.90;;;;;;5092045;28;20371;-57
2022/02/04 15:29:53;;;;;;;3.90;0.87;;;7.90;99.90;;;;;;5092385;28;20390;-57
2022/02/04 15:32:19;;;;;;;5.10;1.00;;;7.90;99.90;;;;;;5091193;28;20401;-57
2022/02/04 15:34:45;;;;;;;4.07;0.90;;;7.80;99.90;;;;;;5091794;28;20379;-57
2022/02/04 15:37:10;;;;;;;3.72;0.82;;;7.80;99.90;;;;;;5092460;28;20382;-57
2022/02/04 15:39:36;;;;;;;3.50;0.70;;;7.80;99.90;;;;;;5091780;28;20421;-57
2022/02/04 15:42:09;;;;;;;3.72;0.80;;;7.80;99.90;;;;;;5092771;28;20382;-57
2022/02/04 15:44:39;;;;;;;4.57;0.80;;;7.90;99.90;;;;;;5090591;28;20434;-58
2022/02/04 15:47:29;;;;;;;4.60;0.80;;;7.80;99.90;;;;;;5092424;28;20382;-57
2022/02/04 15:52:52;;;;;;;3.70;0.80;;;7.80;99.90;;;;;;5092359;28;20485;-57
2022/02/04 16:05:16;;;;;;;3.70;0.77;;;9.20;99.90;;;;;;5091874;28;20388;-57
2022/02/04 16:07:41;;;;;;;3.73;0.80;;;9.10;99.90;;;;;;5090957;28;20382;-57
2022/02/04 16:12:53;;;;;;;3.67;0.70;;;7.60;99.90;;;;;;5090645;28;20370;-57
2022/02/04 16:15:39;;;;;;;4.70;0.75;;;7.70;99.90;;;;;;5081155;28;20541;-55
2022/02/04 16:18:13;;;;;;;4.05;0.90;;;7.70;99.90;;;;;;5087308;28;21004;-55
2022/02/04 16:20:57;;;;;;;3.97;0.87;;;7.80;99.90;;;;;;5088068;28;20477;-56
2022/02/04 16:23:46;;;;;;;5.70;1.80;;;7.80;99.90;;;;;;5091898;28;20389;-56
2022/02/04 16:28:57;;;;;;;3.58;0.60;;;7.80;99.90;;;;;;5089024;28;20440;-56
2022/02/04 16:31:25;;;;;;;3.60;0.80;;;7.80;99.90;;;;;;5075926;28;20837;-56
2022/02/04 16:33:51;;;;;;;4.10;0.90;;;7.70;99.90;;;;;;5080981;28;20404;-56
2022/02/04 16:36:21;;;;;;;5.00;0.80;;;7.70;99.90;;;;;;5086119;28;20402;-56
2022/02/04 16:38:53;;;;;;;3.60;0.70;;;7.70;99.90;;;;;;5084591;28;20405;-56
2022/02/04 16:41:31;;;;;;;3.80;0.80;;;7.60;99.90;;;;;;5087535;28;20398;-56
2022/02/04 16:43:58;;;;;;;3.92;0.90;;;7.60;99.90;;;;;;5088890;28;20405;-56
2022/02/04 16:46:23;;;;;;;4.30;0.90;;;7.50;99.90;;;;;;5092118;28;20411;-56
2022/02/04 16:48:49;;;;;;;4.20;0.90;;;7.50;99.90;;;;;;5098305;28;20397;-56
2022/02/04 16:51:15;;;;;;;4.70;1.10;;;7.50;99.90;;;;;;5103694;28;20384;-56
2022/02/04 16:53:43;;;;;;;3.70;0.90;;;7.40;99.90;;;;;;5104106;28;20846;-55
2022/02/04 16:56:09;;;;;;;3.80;0.80;;;7.40;99.90;;;;;;5086945;28;20386;-56
2022/02/04 16:58:35;;;;;;;3.75;0.90;;;7.30;99.90;;;;;;5086567;28;20410;-56
2022/02/04 17:01:01;;;;;;;3.70;0.70;;;7.40;99.90;;;;;;5087614;28;20394;-56
2022/02/04 17:03:27;;;;;;;3.40;0.63;;;7.40;99.90;;;;;;5090249;28;20378;-56
2022/02/04 17:05:57;;;;;;;4.00;0.80;;;7.50;99.90;;;;;;5093076;28;20413;-56
2022/02/04 17:08:33;;;;;;;4.40;0.90;;;7.50;99.90;;;;;;5095322;28;20392;-56
2022/02/04 17:11:02;;;;;;;4.00;0.80;;;7.60;99.90;;;;;;5088216;28;20402;-56
2022/02/04 17:13:28;;;;;;;3.60;0.60;;;7.50;99.90;;;;;;5087981;28;20471;-57
2022/02/04 17:15:54;;;;;;;3.53;0.70;;;7.50;99.90;;;;;;5088980;28;20913;-57
2022/02/04 17:18:20;;;;;;;4.30;0.90;;;7.40;99.90;;;;;;5093280;28;20447;-56
2022/02/04 17:20:48;;;;;;;3.80;0.80;;;7.40;99.90;;;;;;5089654;28;20654;-56
2022/02/04 17:23:15;;;;;;;4.93;0.83;;;7.40;99.90;;;;;;5087572;28;20377;-57
2022/02/04 17:25:44;;;;;;;5.75;1.00;;;7.30;99.90;;;;;;5091584;28;20412;-57
2022/02/04 17:28:10;;;;;;;3.70;0.80;;;7.30;99.90;;;;;;5094302;28;20424;-57
2022/02/04 17:30:35;;;;;;;5.45;0.93;;;7.30;99.90;;;;;;5086542;28;20573;-57
2022/02/04 17:33:05;;;;;;;5.00;0.90;;;7.40;99.90;;;;;;5092669;28;20397;-57
2022/02/04 17:35:31;;;;;;;4.22;1.05;;;7.40;99.90;;;;;;5098320;28;20490;-57
2022/02/04 17:38:01;;;;;;;3.70;0.85;;;7.40;99.90;;;;;;5098503;28;20907;-57
2022/02/04 17:40:27;;;;;;;3.70;0.80;;;7.10;99.90;;;;;;5084311;28;20485;-57
2022/02/04 17:42:54;;;;;;;4.13;0.80;;;7.20;99.90;;;;;;5095866;28;20525;-57
2022/02/04 17:45:22;;;;;;;4.35;1.00;;;7.20;99.90;;;;;;5096804;28;20407;-57
2022/02/04 17:47:57;;;;;;;3.60;0.90;;;7.20;99.90;;;;;;5090081;28;20390;-57
2022/02/04 17:50:31;;;;;;;4.13;1.00;;;7.30;99.90;;;;;;5092017;28;20389;-57
2022/02/04 17:53:15;;;;;;;4.40;1.20;;;7.30;99.90;;;;;;5083286;28;20947;-57
2022/02/04 17:55:47;;;;;;;4.47;1.10;;;7.30;99.90;;;;;;5083909;28;20757;-57
2022/02/04 17:58:27;;;;;;;4.68;1.05;;;7.30;99.90;;;;;;5091219;28;20436;-57
2022/02/04 18:08:14;;;;;;;4.65;1.10;;;7.30;99.90;;;;;;5086667;28;20413;-57
2022/02/04 18:10:40;;;;;;;4.50;1.20;;;7.40;99.90;;;;;;5088015;28;20371;-57
2022/02/04 18:13:08;;;;;;;4.07;1.20;;;7.50;99.90;;;;;;5085947;28;20773;-57
2022/02/04 18:15:40;;;;;;;4.23;1.20;;;9.30;99.90;;;;;;5086136;28;20413;-57
2022/02/04 18:18:06;;;;;;;4.22;1.20;;;7.50;99.90;;;;;;5083070;28;20907;-57
2022/02/04 18:20:33;;;;;;;4.32;1.20;;;7.50;99.90;;;;;;5083703;28;20863;-58
2022/02/04 18:22:59;;;;;;;6.85;1.00;;;7.40;99.90;;;;;;5085654;28;20390;-57
2022/02/04 18:25:25;;;;;;;4.00;1.00;;;7.20;99.90;;;;;;5083697;28;20480;-57
2022/02/04 18:27:50;;;;;;;4.47;1.40;;;7.20;99.90;;;;;;5085895;28;20505;-57
2022/02/04 18:30:18;;;;;;;3.83;0.90;;;7.30;99.90;;;;;;5085466;28;20390;-57
2022/02/04 18:32:46;;;;;;;5.20;1.30;;;7.10;99.90;;;;;;5070144;28;20383;-57
2022/02/04 18:35:14;;;;;;;5.90;1.17;;;7.00;99.90;;;;;;5071198;28;20463;-57
2022/02/04 18:37:44;;;;;;;4.20;1.00;;;6.80;99.90;;;;;;5077221;28;20381;-57
2022/02/04 18:40:41;;;;;;;3.67;1.00;;;6.90;99.90;;;;;;5087283;28;20393;-57
2022/02/04 18:43:35;;;;;;;3.43;0.80;;;6.80;99.90;;;;;;5085432;28;20481;-57
2022/02/04 18:46:07;;;;;;;4.03;1.10;;;6.70;99.90;;;;;;5089689;28;20389;-57
2022/02/04 18:48:53;;;;;;;4.10;1.00;;;6.80;99.90;;;;;;5087615;28;20402;-57
2022/02/04 18:59:14;;;;;;;4.28;1.30;;;6.90;99.90;;;;;;5088078;28;20420;-57
2022/02/04 19:01:39;;;;;;;4.00;1.02;;;6.90;99.90;;;;;;5086246;28;20390;-57
2022/02/04 19:04:10;;;;;;;4.00;1.02;;;6.80;99.90;;;;;;5083739;28;20714;-57
2022/02/04 19:06:42;;;;;;;4.45;1.13;;;6.90;99.90;;;;;;5071846;28;20383;-57
2022/02/04 19:09:08;;;;;;;3.92;1.10;;;6.90;99.90;;;;;;5072824;28;20545;-57
2022/02/04 19:11:42;;;;;;;4.15;1.08;;;6.70;99.90;;;;;;5081138;28;20419;-57
2022/02/04 19:14:16;;;;;;;4.90;1.30;;;6.80;99.90;;;;;;5088371;28;20397;-57
2022/02/04 19:24:12;;;;;;;5.15;1.00;;;6.90;99.90;;;;;;5072812;28;20376;-57
2022/02/04 19:26:38;;;;;;;4.30;0.80;;;6.80;99.90;;;;;;5071900;28;20382;-57
2022/02/04 19:29:08;;;;;;;4.97;0.90;;;6.90;99.90;;;;;;5072699;28;20884;-57
2022/02/04 19:31:43;;;;;;;3.95;1.10;;;7.00;99.90;;;;;;5071660;28;20380;-57
2022/02/04 19:34:09;;;;;;;4.87;1.30;;;9.10;99.90;;;;;;5072712;28;20454;-57
2022/02/04 19:36:36;;;;;;;4.00;1.00;;;7.20;99.90;;;;;;5087093;28;20378;-57
2022/02/04 19:39:03;;;;;;;4.82;1.20;;;8.70;99.90;;;;;;5087838;28;20409;-57
2022/02/04 19:41:31;;;;;;;3.90;1.00;;;7.10;99.90;;;;;;5086056;28;20375;-57
2022/02/04 19:43:58;;;;;;;4.00;1.30;;;7.30;99.90;;;;;;5080415;28;20454;-57
2022/02/04 19:46:28;;;;;;;4.72;1.40;;;7.30;99.90;;;;;;5080895;28;20396;-58
2022/02/04 19:48:57;;;;;;;4.10;1.02;;;7.30;99.90;;;;;;5071912;28;20403;-57